Share

Andrews, TX

Near Hospital - Andrews (KTXANDRE2) Elev 3178 ft | 32.34 °N, 102.54 °W | Change Station

Current weather conditions updated 3 seconds ago

Clear
Clear
61.3 °F
Feels Like 61.3 °F
N
0.0
Wind Variable Wind from SSE
Gusts 5.6 mph
Sunrise 7:17 AM
Sunset 8:21 PM
Moon Waning Gibbous

Tomorrow is forecast to be nearly the same temperature as today. Thundershowers possible in the afternoon.

Pressure 30.10 in
Visibility 10.0 miles
Clouds Clear
Dew Point 15 °F
Humidity 16%
Rainfall 0.00 in
Snow Depth Not available.
UV 0 out of 16
Pollen 7.90 out of 12
Air Quality Not available.
Flu Activity Local Activity
METAR KE11 190355Z AUTO 13007KT 10SM CLR 16/06 A3010 RMK AO2 T01620060

More Conditions Fewer Conditions

Pressure 30.10 in
Visibility 10.0 miles
Clouds Clear
Dew Point 15 °F
Humidity 16%
Rainfall 0.00 in
Snow Depth Not available.
UV 0 out of 16
Pollen 7.90 out of 12
Air Quality Not available.
Flu Activity Local Activity
METAR KE11 190355Z AUTO 13007KT 10SM CLR 16/06 A3010 RMK AO2 T01620060

More Conditions Fewer Conditions

10-Day Weather Forecast

Almanac

Astronomy

Apr. 18, 2014 Rise Set
Actual Time 7:17 AM CDT 8:21 PM CDT
Civil Twilight 6:52 AM CDT 8:47 PM CDT
Nautical Twilight 6:22 AM CDT 9:17 PM CDT
Astronomical Twilight 5:51 AM CDT 9:48 PM CDT
Moon No Moon Rise 9:48 AM CDT (4/18)
Length of Visible Light 13h 55m
Length of Day
13h 04m
Tomorrow will be 1m 50s longer.
Waning Gibbous, 83% of the Moon is Illuminated
Apr 19
Waning Gibbous
Apr 22
Last Quarter
Apr 29
New
May 6
First Quarter
May 14
Full

Today's Extremes

State Highs State Lows

Community

  • Sunset Silhouettes
    Sunset Silhouettes
  • FL sunset Perico Isle
    FL sunset Perico Isle
  • Cloudy spring view
    Cloudy spring view
  • Old barn
    Old barn
  • What's for Lunch?
    What's for Lunch?

WunderPhotos

Upload Photos

1,702,637 photos uploaded!

WunderBlogs® & News

Nearby

Snow Depth

Station Depth Elevation
No new snow has been reported.

Coastal Water Temperatures

Place Temperature
No Stations Reporting

Earthquake Activity

City Distance Mag. Time & Date
No recent earthquake activity has been reported nearby.
Minimum magnitude displayed is 2.5.

Nearby Weather Stations

Station Location Temp. Dew Point Humidity Wind Precip. Elev Updated Type
Near Hospital - Andrews, Andrews, TX 61.3 °F 15 °F 16% SSE  at  0.0 mph 0.00 in / hr 3178 ft 11:21 PM CDT Rapid Fire
WT_Meso 2E AndrewsW, Andrews, TX 62 °F 41 °F 48% SE  at  6 mph 0.00 in / hr 3168 ft 10:25 PM CDT MADIS

Show More Stations Show Fewer Stations

What do you think?

We're not finished. Please let us know what you like, what you don't like, and what you are still missing.